Iowa City, IA (52240)

6:12 AM CST on February 01, 2015 (GMT -0600)
SE Iowa City | Change Station
CLOSE
Current Station
Personal Weather Station
Location: Iowa City, IA
Elevation: 656 ft
Nearby Weather Stations
Active Advisory: Winter Storm Warning Active Notice: Local Storm Report

Elev 656 ft 41.63 °N, 91.48 °W | Updated 58 minutes ago

Light Snow
Light Snow Mist
32.3 °F
Feels Like 32 °F
N
0.0
Wind Variable Wind from East
Gusts 0.0 mph

Today
High -- | Low -- °F
--% Chance of Precip.
Yesterday
High -- | Low -- °F
Precip. -- in
7:18 AM 5:21 PM
Waxing Gibbous, 94% visible
Pressure 29.87 in
Visibility 0.8 miles
Clouds Mostly Cloudy 500 ft
Overcast 1100 ft
Windchill 32 °F
Dew Point 32 °F
Humidity 97%
Rainfall 0.00 in
Snow Depth Not available.
UV 0 out of 12
Pollen .10 out of 12
Air Quality Not available.
Flu Activity Not available.
SPECI KIOW 011209Z AUTO 07008KT 3/4SM -SN BR BKN005 OVC011 01/00 A2987 RMK AO2 P0001 T00060000

More Conditions Fewer Conditions

Pressure 29.87 in
Visibility 0.8 miles
Clouds Mostly Cloudy 500 ft
Overcast 1100 ft
Windchill 32 °F
Dew Point 32 °F
Humidity 97%
Rainfall 0.00 in
Snow Depth Not available.
UV 0 out of 12
Pollen .10 out of 12
Air Quality Not available.
Flu Activity Not available.
SPECI KIOW 011209Z AUTO 07008KT 3/4SM -SN BR BKN005 OVC011 01/00 A2987 RMK AO2 P0001 T00060000

More Conditions Fewer Conditions

10-Day Weather Forecast

Almanac

Astronomy

Feb. 01, 2015 Rise Set
Actual Time
Civil Twilight
Nautical Twilight
Astronomical Twilight
Moon
Length of Visible Light
Length of Day
Tomorrow will be .
, % of the Moon is Illuminated

Today's Extremes

State Highs State Lows

Community

WunderPhotos

Upload Photos

1,792,349 photos uploaded!

WunderBlogs® & News

Nearby

Air Quality

  Air Quality AQ Index Pollutant
Not available.

Snow Depth

Station Depth Elevation

Earthquake Activity

City Distance Mag. Time & Date
Minimum magnitude displayed is 2.5.

Coastal Water Temperatures

Place Temperature

Nearby Weather Stations